Terminal Aerodrome Forecast
Issued by NWS

Home | Current Version | Previous Version | Text Only | Print | Product List | Glossary On
Versions: 1 2 3 4 5 6 7 8 9 10 11 12
000
FTUS43 KMPX 031120
TAFRNH
TAF
KRNH 031120Z 0312/0412 18007KT P6SM BKN150
     FM031800 20007KT P6SM SCT050
     FM032000 24008KT P6SM VCTS BKN050CB
      TEMPO 0321/0323 2SM +TSRA BR OVC025CB
     FM040000 35007KT P6SM SCT050
     FM040700 36004KT P6SM SKC=

USA.gov is the U.S. government's official web portal to all federal, state and local government web resources and services.